sensor_id;sensor_type;location;lat;lon;timestamp;P1;durP1;ratioP1;P2;durP2;ratioP2
23617;SDS011;18207;32.078;34.818;2023-05-07T00:00:26;0.65;;;0.50;;
23617;SDS011;18207;32.078;34.818;2023-05-07T00:02:57;1.40;;;0.90;;
23617;SDS011;18207;32.078;34.818;2023-05-07T00:05:28;1.20;;;0.70;;
23617;SDS011;18207;32.078;34.818;2023-05-07T00:07:59;0.68;;;0.68;;
23617;SDS011;18207;32.078;34.818;2023-05-07T00:10:32;0.60;;;0.50;;
23617;SDS011;18207;32.078;34.818;2023-05-07T00:13:03;0.82;;;0.60;;
23617;SDS011;18207;32.078;34.818;2023-05-07T00:15:32;1.15;;;0.63;;
23617;SDS011;18207;32.078;34.818;2023-05-07T00:18:03;1.20;;;0.57;;
23617;SDS011;18207;32.078;34.818;2023-05-07T00:20:33;1.30;;;0.68;;
23617;SDS011;18207;32.078;34.818;2023-05-07T00:23:03;1.52;;;0.80;;
23617;SDS011;18207;32.078;34.818;2023-05-07T00:25:35;0.95;;;0.77;;
23617;SDS011;18207;32.078;34.818;2023-05-07T00:28:06;1.23;;;0.70;;
23617;SDS011;18207;32.078;34.818;2023-05-07T00:30:36;1.05;;;0.70;;
23617;SDS011;18207;32.078;34.818;2023-05-07T00:33:06;0.98;;;0.70;;
23617;SDS011;18207;32.078;34.818;2023-05-07T00:35:36;1.70;;;0.80;;
23617;SDS011;18207;32.078;34.818;2023-05-07T00:38:06;0.68;;;0.52;;
23617;SDS011;18207;32.078;34.818;2023-05-07T00:40:39;2.08;;;0.85;;
23617;SDS011;18207;32.078;34.818;2023-05-07T00:43:11;1.13;;;0.70;;
23617;SDS011;18207;32.078;34.818;2023-05-07T00:45:42;1.33;;;0.82;;
23617;SDS011;18207;32.078;34.818;2023-05-07T00:48:12;1.45;;;0.80;;
23617;SDS011;18207;32.078;34.818;2023-05-07T00:50:44;1.67;;;0.80;;
23617;SDS011;18207;32.078;34.818;2023-05-07T00:53:15;1.73;;;0.80;;
23617;SDS011;18207;32.078;34.818;2023-05-07T00:55:47;1.90;;;0.80;;
23617;SDS011;18207;32.078;34.818;2023-05-07T00:58:19;1.13;;;0.77;;
23617;SDS011;18207;32.078;34.818;2023-05-07T01:00:50;1.90;;;1.30;;
23617;SDS011;18207;32.078;34.818;2023-05-07T01:03:20;2.00;;;1.35;;
23617;SDS011;18207;32.078;34.818;2023-05-07T01:05:51;2.33;;;1.40;;
23617;SDS011;18207;32.078;34.818;2023-05-07T01:08:26;2.55;;;1.55;;
23617;SDS011;18207;32.078;34.818;2023-05-07T01:10:59;2.80;;;1.83;;
23617;SDS011;18207;32.078;34.818;2023-05-07T01:13:30;2.70;;;1.80;;
23617;SDS011;18207;32.078;34.818;2023-05-07T01:16:02;2.75;;;1.90;;
23617;SDS011;18207;32.078;34.818;2023-05-07T01:18:34;2.50;;;1.58;;
23617;SDS011;18207;32.078;34.818;2023-05-07T01:21:05;3.10;;;1.88;;
23617;SDS011;18207;32.078;34.818;2023-05-07T01:23:41;2.10;;;1.67;;
23617;SDS011;18207;32.078;34.818;2023-05-07T01:26:12;2.83;;;1.80;;
23617;SDS011;18207;32.078;34.818;2023-05-07T01:28:43;2.42;;;1.63;;
23617;SDS011;18207;32.078;34.818;2023-05-07T01:31:13;3.80;;;2.10;;
23617;SDS011;18207;32.078;34.818;2023-05-07T01:33:45;3.30;;;1.60;;
23617;SDS011;18207;32.078;34.818;2023-05-07T01:36:19;3.33;;;1.85;;
23617;SDS011;18207;32.078;34.818;2023-05-07T01:38:55;1.85;;;1.50;;
23617;SDS011;18207;32.078;34.818;2023-05-07T01:41:27;2.75;;;1.88;;
23617;SDS011;18207;32.078;34.818;2023-05-07T01:43:57;2.38;;;1.65;;
23617;SDS011;18207;32.078;34.818;2023-05-07T01:46:29;2.42;;;1.95;;
23617;SDS011;18207;32.078;34.818;2023-05-07T01:49:01;3.13;;;1.88;;
23617;SDS011;18207;32.078;34.818;2023-05-07T01:51:32;2.58;;;2.17;;
23617;SDS011;18207;32.078;34.818;2023-05-07T01:54:05;4.55;;;2.00;;
23617;SDS011;18207;32.078;34.818;2023-05-07T01:56:35;2.55;;;1.90;;
23617;SDS011;18207;32.078;34.818;2023-05-07T01:59:06;3.78;;;1.80;;
23617;SDS011;18207;32.078;34.818;2023-05-07T02:01:36;3.92;;;2.28;;
23617;SDS011;18207;32.078;34.818;2023-05-07T02:04:06;2.72;;;1.98;;
23617;SDS011;18207;32.078;34.818;2023-05-07T02:06:37;2.70;;;1.92;;
23617;SDS011;18207;32.078;34.818;2023-05-07T02:09:09;3.38;;;1.90;;
23617;SDS011;18207;32.078;34.818;2023-05-07T02:11:44;1.70;;;1.58;;
23617;SDS011;18207;32.078;34.818;2023-05-07T02:14:15;2.35;;;2.00;;
23617;SDS011;18207;32.078;34.818;2023-05-07T02:16:47;2.10;;;1.52;;
23617;SDS011;18207;32.078;34.818;2023-05-07T02:19:17;1.75;;;1.65;;
23617;SDS011;18207;32.078;34.818;2023-05-07T02:21:48;3.22;;;2.08;;
23617;SDS011;18207;32.078;34.818;2023-05-07T02:24:20;2.65;;;1.67;;
23617;SDS011;18207;32.078;34.818;2023-05-07T02:26:50;1.88;;;1.50;;
23617;SDS011;18207;32.078;34.818;2023-05-07T02:29:20;2.88;;;1.70;;
23617;SDS011;18207;32.078;34.818;2023-05-07T02:31:51;1.85;;;1.50;;
23617;SDS011;18207;32.078;34.818;2023-05-07T02:34:22;2.60;;;1.65;;
23617;SDS011;18207;32.078;34.818;2023-05-07T02:36:53;2.25;;;1.80;;
23617;SDS011;18207;32.078;34.818;2023-05-07T02:39:25;2.58;;;1.73;;
23617;SDS011;18207;32.078;34.818;2023-05-07T02:41:55;2.42;;;1.48;;
23617;SDS011;18207;32.078;34.818;2023-05-07T02:44:26;1.88;;;1.40;;
23617;SDS011;18207;32.078;34.818;2023-05-07T02:46:58;2.33;;;1.70;;
23617;SDS011;18207;32.078;34.818;2023-05-07T02:49:28;2.50;;;1.70;;
23617;SDS011;18207;32.078;34.818;2023-05-07T02:51:58;2.00;;;1.80;;
23617;SDS011;18207;32.078;34.818;2023-05-07T02:54:31;1.67;;;1.58;;
23617;SDS011;18207;32.078;34.818;2023-05-07T02:57:02;2.80;;;1.90;;
23617;SDS011;18207;32.078;34.818;2023-05-07T02:59:33;1.70;;;1.60;;
23617;SDS011;18207;32.078;34.818;2023-05-07T03:02:03;2.00;;;1.80;;
23617;SDS011;18207;32.078;34.818;2023-05-07T03:04:33;2.30;;;1.63;;
23617;SDS011;18207;32.078;34.818;2023-05-07T03:07:04;3.00;;;1.80;;
23617;SDS011;18207;32.078;34.818;2023-05-07T03:09:37;3.08;;;1.83;;
23617;SDS011;18207;32.078;34.818;2023-05-07T03:12:07;1.83;;;1.60;;
23617;SDS011;18207;32.078;34.818;2023-05-07T03:14:38;3.42;;;1.67;;
23617;SDS011;18207;32.078;34.818;2023-05-07T03:17:14;3.08;;;1.88;;
23617;SDS011;18207;32.078;34.818;2023-05-07T03:19:45;3.33;;;1.85;;
23617;SDS011;18207;32.078;34.818;2023-05-07T03:22:15;1.85;;;1.63;;
23617;SDS011;18207;32.078;34.818;2023-05-07T03:24:48;2.55;;;1.73;;
23617;SDS011;18207;32.078;34.818;2023-05-07T03:27:18;2.47;;;1.90;;
23617;SDS011;18207;32.078;34.818;2023-05-07T03:29:49;1.85;;;1.35;;
23617;SDS011;18207;32.078;34.818;2023-05-07T03:32:19;2.00;;;1.60;;
23617;SDS011;18207;32.078;34.818;2023-05-07T03:34:50;2.17;;;1.67;;
23617;SDS011;18207;32.078;34.818;2023-05-07T03:37:21;2.45;;;1.77;;
23617;SDS011;18207;32.078;34.818;2023-05-07T03:39:53;1.92;;;1.55;;
23617;SDS011;18207;32.078;34.818;2023-05-07T03:42:23;2.50;;;1.90;;
23617;SDS011;18207;32.078;34.818;2023-05-07T03:44:54;1.77;;;1.60;;
23617;SDS011;18207;32.078;34.818;2023-05-07T03:47:24;1.77;;;1.45;;
23617;SDS011;18207;32.078;34.818;2023-05-07T03:49:55;2.53;;;1.60;;
23617;SDS011;18207;32.078;34.818;2023-05-07T03:52:26;2.00;;;1.30;;
23617;SDS011;18207;32.078;34.818;2023-05-07T03:55:00;2.92;;;1.58;;
23617;SDS011;18207;32.078;34.818;2023-05-07T03:57:30;1.55;;;1.35;;
23617;SDS011;18207;32.078;34.818;2023-05-07T04:00:01;1.45;;;1.35;;
23617;SDS011;18207;32.078;34.818;2023-05-07T04:02:33;2.60;;;1.50;;
23617;SDS011;18207;32.078;34.818;2023-05-07T04:05:05;1.40;;;1.25;;
23617;SDS011;18207;32.078;34.818;2023-05-07T04:07:36;2.38;;;1.58;;
23617;SDS011;18207;32.078;34.818;2023-05-07T04:10:10;1.40;;;1.30;;
23617;SDS011;18207;32.078;34.818;2023-05-07T04:12:40;3.45;;;1.48;;
23617;SDS011;18207;32.078;34.818;2023-05-07T04:15:11;2.50;;;1.50;;
23617;SDS011;18207;32.078;34.818;2023-05-07T04:17:42;2.00;;;1.38;;
23617;SDS011;18207;32.078;34.818;2023-05-07T04:20:14;1.80;;;1.40;;
23617;SDS011;18207;32.078;34.818;2023-05-07T04:22:46;1.42;;;1.17;;
23617;SDS011;18207;32.078;34.818;2023-05-07T04:25:19;2.15;;;1.20;;
23617;SDS011;18207;32.078;34.818;2023-05-07T04:27:53;1.88;;;1.10;;
23617;SDS011;18207;32.078;34.818;2023-05-07T04:30:23;2.60;;;1.38;;
23617;SDS011;18207;32.078;34.818;2023-05-07T04:32:54;1.90;;;1.08;;
23617;SDS011;18207;32.078;34.818;2023-05-07T04:35:26;2.55;;;1.40;;
23617;SDS011;18207;32.078;34.818;2023-05-07T04:37:56;1.38;;;1.20;;
23617;SDS011;18207;32.078;34.818;2023-05-07T04:40:29;2.00;;;1.08;;
23617;SDS011;18207;32.078;34.818;2023-05-07T04:43:01;1.40;;;0.90;;
23617;SDS011;18207;32.078;34.818;2023-05-07T04:45:33;1.40;;;1.00;;
23617;SDS011;18207;32.078;34.818;2023-05-07T04:48:05;2.03;;;1.20;;
23617;SDS011;18207;32.078;34.818;2023-05-07T04:50:35;1.38;;;0.88;;
23617;SDS011;18207;32.078;34.818;2023-05-07T04:53:06;1.52;;;0.98;;
23617;SDS011;18207;32.078;34.818;2023-05-07T04:55:38;1.08;;;0.90;;
23617;SDS011;18207;32.078;34.818;2023-05-07T04:58:09;1.13;;;0.88;;
23617;SDS011;18207;32.078;34.818;2023-05-07T05:00:41;2.15;;;0.90;;
23617;SDS011;18207;32.078;34.818;2023-05-07T05:03:12;1.60;;;0.93;;
23617;SDS011;18207;32.078;34.818;2023-05-07T05:05:43;1.30;;;1.00;;
23617;SDS011;18207;32.078;34.818;2023-05-07T05:08:15;2.28;;;0.93;;
23617;SDS011;18207;32.078;34.818;2023-05-07T05:10:48;1.17;;;1.08;;
23617;SDS011;18207;32.078;34.818;2023-05-07T05:13:20;1.75;;;1.00;;
23617;SDS011;18207;32.078;34.818;2023-05-07T05:15:51;1.75;;;1.00;;
23617;SDS011;18207;32.078;34.818;2023-05-07T05:18:22;1.95;;;0.90;;
23617;SDS011;18207;32.078;34.818;2023-05-07T05:20:53;1.33;;;0.90;;
23617;SDS011;18207;32.078;34.818;2023-05-07T05:23:24;1.30;;;0.80;;
23617;SDS011;18207;32.078;34.818;2023-05-07T05:25:58;1.42;;;0.88;;
23617;SDS011;18207;32.078;34.818;2023-05-07T05:28:29;1.92;;;0.90;;
23617;SDS011;18207;32.078;34.818;2023-05-07T05:30:59;1.60;;;1.00;;
23617;SDS011;18207;32.078;34.818;2023-05-07T05:33:30;1.60;;;0.77;;
23617;SDS011;18207;32.078;34.818;2023-05-07T05:36:01;2.05;;;1.23;;
23617;SDS011;18207;32.078;34.818;2023-05-07T05:38:33;1.40;;;0.95;;
23617;SDS011;18207;32.078;34.818;2023-05-07T05:41:06;1.30;;;0.70;;
23617;SDS011;18207;32.078;34.818;2023-05-07T05:43:37;1.52;;;0.77;;
23617;SDS011;18207;32.078;34.818;2023-05-07T05:46:09;1.73;;;1.00;;
23617;SDS011;18207;32.078;34.818;2023-05-07T05:48:42;1.25;;;0.88;;
23617;SDS011;18207;32.078;34.818;2023-05-07T05:51:13;1.00;;;0.85;;
23617;SDS011;18207;32.078;34.818;2023-05-07T05:53:43;0.95;;;0.80;;
23617;SDS011;18207;32.078;34.818;2023-05-07T05:56:15;0.93;;;0.80;;
23617;SDS011;18207;32.078;34.818;2023-05-07T05:58:46;1.38;;;0.88;;
23617;SDS011;18207;32.078;34.818;2023-05-07T06:01:17;1.27;;;0.77;;
23617;SDS011;18207;32.078;34.818;2023-05-07T06:03:48;2.25;;;0.98;;
23617;SDS011;18207;32.078;34.818;2023-05-07T06:06:18;1.30;;;0.65;;
23617;SDS011;18207;32.078;34.818;2023-05-07T06:08:49;1.98;;;0.82;;
23617;SDS011;18207;32.078;34.818;2023-05-07T06:11:21;0.77;;;0.77;;
23617;SDS011;18207;32.078;34.818;2023-05-07T06:13:52;0.98;;;0.80;;
23617;SDS011;18207;32.078;34.818;2023-05-07T06:16:24;2.08;;;0.88;;
23617;SDS011;18207;32.078;34.818;2023-05-07T06:18:54;0.98;;;0.85;;
23617;SDS011;18207;32.078;34.818;2023-05-07T06:21:24;1.08;;;0.65;;
23617;SDS011;18207;32.078;34.818;2023-05-07T06:23:55;1.45;;;0.80;;
23617;SDS011;18207;32.078;34.818;2023-05-07T06:26:27;1.17;;;0.90;;
23617;SDS011;18207;32.078;34.818;2023-05-07T06:28:57;0.80;;;0.57;;
23617;SDS011;18207;32.078;34.818;2023-05-07T06:31:29;1.48;;;1.05;;
23617;SDS011;18207;32.078;34.818;2023-05-07T06:34:00;1.63;;;0.82;;
23617;SDS011;18207;32.078;34.818;2023-05-07T06:36:30;1.58;;;1.20;;
23617;SDS011;18207;32.078;34.818;2023-05-07T06:39:01;1.77;;;0.75;;
23617;SDS011;18207;32.078;34.818;2023-05-07T06:41:32;1.35;;;0.95;;
23617;SDS011;18207;32.078;34.818;2023-05-07T06:44:03;1.10;;;1.00;;
23617;SDS011;18207;32.078;34.818;2023-05-07T06:46:35;1.05;;;0.80;;
23617;SDS011;18207;32.078;34.818;2023-05-07T06:49:05;0.95;;;0.82;;
23617;SDS011;18207;32.078;34.818;2023-05-07T06:51:35;1.13;;;0.70;;
23617;SDS011;18207;32.078;34.818;2023-05-07T06:54:06;0.65;;;0.65;;
23617;SDS011;18207;32.078;34.818;2023-05-07T06:56:39;0.52;;;0.52;;
23617;SDS011;18207;32.078;34.818;2023-05-07T06:59:09;2.50;;;0.98;;
23617;SDS011;18207;32.078;34.818;2023-05-07T07:01:40;1.25;;;0.93;;
23617;SDS011;18207;32.078;34.818;2023-05-07T07:04:10;0.75;;;0.70;;
23617;SDS011;18207;32.078;34.818;2023-05-07T07:06:40;0.65;;;0.65;;
23617;SDS011;18207;32.078;34.818;2023-05-07T07:09:18;0.90;;;0.75;;
23617;SDS011;18207;32.078;34.818;2023-05-07T07:11:51;1.40;;;0.82;;
23617;SDS011;18207;32.078;34.818;2023-05-07T07:14:22;0.77;;;0.60;;
23617;SDS011;18207;32.078;34.818;2023-05-07T07:16:52;0.90;;;0.80;;
23617;SDS011;18207;32.078;34.818;2023-05-07T07:19:23;1.02;;;0.80;;
23617;SDS011;18207;32.078;34.818;2023-05-07T07:21:54;0.93;;;0.70;;
23617;SDS011;18207;32.078;34.818;2023-05-07T07:24:24;1.83;;;0.88;;
23617;SDS011;18207;32.078;34.818;2023-05-07T07:26:56;1.25;;;0.80;;
23617;SDS011;18207;32.078;34.818;2023-05-07T07:29:27;0.63;;;0.63;;
23617;SDS011;18207;32.078;34.818;2023-05-07T07:31:58;1.40;;;0.70;;
23617;SDS011;18207;32.078;34.818;2023-05-07T07:34:28;0.82;;;0.80;;
23617;SDS011;18207;32.078;34.818;2023-05-07T07:36:58;0.50;;;0.50;;
23617;SDS011;18207;32.078;34.818;2023-05-07T07:39:32;0.75;;;0.60;;
23617;SDS011;18207;32.078;34.818;2023-05-07T07:42:04;1.38;;;0.75;;
23617;SDS011;18207;32.078;34.818;2023-05-07T07:44:34;0.77;;;0.70;;
23617;SDS011;18207;32.078;34.818;2023-05-07T07:47:06;1.27;;;1.10;;
23617;SDS011;18207;32.078;34.818;2023-05-07T07:49:37;0.80;;;0.80;;
23617;SDS011;18207;32.078;34.818;2023-05-07T07:52:08;0.95;;;0.80;;
23617;SDS011;18207;32.078;34.818;2023-05-07T07:54:39;0.80;;;0.70;;
23617;SDS011;18207;32.078;34.818;2023-05-07T07:57:11;0.93;;;0.73;;
23617;SDS011;18207;32.078;34.818;2023-05-07T07:59:41;1.08;;;0.98;;
23617;SDS011;18207;32.078;34.818;2023-05-07T08:02:12;1.20;;;0.80;;
23617;SDS011;18207;32.078;34.818;2023-05-07T08:04:43;1.02;;;0.80;;
23617;SDS011;18207;32.078;34.818;2023-05-07T08:07:13;0.73;;;0.70;;
23617;SDS011;18207;32.078;34.818;2023-05-07T08:09:45;1.08;;;0.75;;
23617;SDS011;18207;32.078;34.818;2023-05-07T08:12:18;1.08;;;0.70;;
23617;SDS011;18207;32.078;34.818;2023-05-07T08:14:49;2.22;;;1.00;;
23617;SDS011;18207;32.078;34.818;2023-05-07T08:17:20;1.35;;;0.80;;
23617;SDS011;18207;32.078;34.818;2023-05-07T08:19:51;1.10;;;0.80;;
23617;SDS011;18207;32.078;34.818;2023-05-07T08:22:21;1.13;;;0.75;;
23617;SDS011;18207;32.078;34.818;2023-05-07T08:24:52;0.70;;;0.70;;
23617;SDS011;18207;32.078;34.818;2023-05-07T08:27:24;1.33;;;0.93;;
23617;SDS011;18207;32.078;34.818;2023-05-07T08:29:54;0.82;;;0.82;;
23617;SDS011;18207;32.078;34.818;2023-05-07T08:32:25;0.90;;;0.80;;
23617;SDS011;18207;32.078;34.818;2023-05-07T08:34:55;1.05;;;0.95;;
23617;SDS011;18207;32.078;34.818;2023-05-07T08:37:25;1.00;;;1.00;;
23617;SDS011;18207;32.078;34.818;2023-05-07T08:39:55;1.05;;;0.85;;
23617;SDS011;18207;32.078;34.818;2023-05-07T08:42:28;0.70;;;0.70;;
23617;SDS011;18207;32.078;34.818;2023-05-07T08:45:04;0.88;;;0.82;;
23617;SDS011;18207;32.078;34.818;2023-05-07T08:47:41;0.88;;;0.85;;
23617;SDS011;18207;32.078;34.818;2023-05-07T08:50:15;0.77;;;0.73;;
23617;SDS011;18207;32.078;34.818;2023-05-07T08:52:47;0.95;;;0.90;;
23617;SDS011;18207;32.078;34.818;2023-05-07T08:55:18;1.77;;;0.70;;
23617;SDS011;18207;32.078;34.818;2023-05-07T08:57:51;1.55;;;0.80;;
23617;SDS011;18207;32.078;34.818;2023-05-07T09:00:23;0.82;;;0.60;;
23617;SDS011;18207;32.078;34.818;2023-05-07T09:02:53;1.55;;;1.00;;
23617;SDS011;18207;32.078;34.818;2023-05-07T09:05:24;3.90;;;1.02;;
23617;SDS011;18207;32.078;34.818;2023-05-07T09:07:54;0.85;;;0.85;;
23617;SDS011;18207;32.078;34.818;2023-05-07T09:10:28;1.00;;;0.90;;
23617;SDS011;18207;32.078;34.818;2023-05-07T09:13:04;0.90;;;0.70;;
23617;SDS011;18207;32.078;34.818;2023-05-07T09:15:34;1.95;;;1.20;;
23617;SDS011;18207;32.078;34.818;2023-05-07T09:18:05;1.05;;;0.90;;
23617;SDS011;18207;32.078;34.818;2023-05-07T09:20:36;1.10;;;0.98;;
23617;SDS011;18207;32.078;34.818;2023-05-07T09:23:06;1.38;;;1.15;;
23617;SDS011;18207;32.078;34.818;2023-05-07T09:25:38;1.08;;;0.98;;
23617;SDS011;18207;32.078;34.818;2023-05-07T09:28:11;1.30;;;1.20;;
23617;SDS011;18207;32.078;34.818;2023-05-07T09:30:42;1.15;;;1.05;;
23617;SDS011;18207;32.078;34.818;2023-05-07T09:33:12;1.23;;;1.13;;
23617;SDS011;18207;32.078;34.818;2023-05-07T09:35:43;2.13;;;1.42;;
23617;SDS011;18207;32.078;34.818;2023-05-07T09:38:14;2.45;;;1.50;;
23617;SDS011;18207;32.078;34.818;2023-05-07T09:40:52;1.42;;;1.33;;
23617;SDS011;18207;32.078;34.818;2023-05-07T09:43:34;1.30;;;1.30;;
23617;SDS011;18207;32.078;34.818;2023-05-07T09:46:07;1.23;;;1.17;;
23617;SDS011;18207;32.078;34.818;2023-05-07T09:48:41;2.25;;;1.50;;
23617;SDS011;18207;32.078;34.818;2023-05-07T09:51:16;1.88;;;1.40;;
23617;SDS011;18207;32.078;34.818;2023-05-07T09:53:58;1.45;;;1.10;;
23617;SDS011;18207;32.078;34.818;2023-05-07T09:56:30;1.20;;;1.08;;
23617;SDS011;18207;32.078;34.818;2023-05-07T09:59:03;1.05;;;1.00;;
23617;SDS011;18207;32.078;34.818;2023-05-07T10:01:37;1.25;;;1.15;;
23617;SDS011;18207;32.078;34.818;2023-05-07T10:04:11;0.82;;;0.82;;
23617;SDS011;18207;32.078;34.818;2023-05-07T10:06:43;1.00;;;0.90;;
23617;SDS011;18207;32.078;34.818;2023-05-07T10:09:15;1.42;;;1.10;;
23617;SDS011;18207;32.078;34.818;2023-05-07T10:11:49;2.13;;;1.00;;
23617;SDS011;18207;32.078;34.818;2023-05-07T10:14:22;1.10;;;1.00;;
23617;SDS011;18207;32.078;34.818;2023-05-07T10:16:53;1.77;;;1.02;;
23617;SDS011;18207;32.078;34.818;2023-05-07T10:19:25;1.08;;;0.73;;
23617;SDS011;18207;32.078;34.818;2023-05-07T10:21:59;1.00;;;1.00;;
23617;SDS011;18207;32.078;34.818;2023-05-07T10:24:35;1.45;;;0.85;;
23617;SDS011;18207;32.078;34.818;2023-05-07T10:27:07;0.70;;;0.70;;
23617;SDS011;18207;32.078;34.818;2023-05-07T10:29:45;1.00;;;0.80;;
23617;SDS011;18207;32.078;34.818;2023-05-07T10:32:31;1.25;;;0.95;;
23617;SDS011;18207;32.078;34.818;2023-05-07T10:35:10;0.88;;;0.82;;
23617;SDS011;18207;32.078;34.818;2023-05-07T10:37:46;1.25;;;1.08;;
23617;SDS011;18207;32.078;34.818;2023-05-07T10:40:17;1.60;;;1.10;;
23617;SDS011;18207;32.078;34.818;2023-05-07T10:42:53;0.88;;;0.75;;
23617;SDS011;18207;32.078;34.818;2023-05-07T10:45:28;0.50;;;0.50;;
23617;SDS011;18207;32.078;34.818;2023-05-07T10:48:09;1.20;;;1.10;;
23617;SDS011;18207;32.078;34.818;2023-05-07T10:50:44;0.90;;;0.82;;
23617;SDS011;18207;32.078;34.818;2023-05-07T10:53:22;0.75;;;0.75;;
23617;SDS011;18207;32.078;34.818;2023-05-07T11:02:12;0.77;;;0.77;;
23617;SDS011;18207;32.078;34.818;2023-05-07T11:04:42;1.27;;;1.02;;
23617;SDS011;18207;32.078;34.818;2023-05-07T11:07:26;1.15;;;1.00;;
23617;SDS011;18207;32.078;34.818;2023-05-07T11:09:59;0.98;;;0.80;;
23617;SDS011;18207;32.078;34.818;2023-05-07T11:12:51;1.27;;;0.85;;
23617;SDS011;18207;32.078;34.818;2023-05-07T11:15:42;0.75;;;0.68;;
23617;SDS011;18207;32.078;34.818;2023-05-07T11:18:16;1.10;;;0.90;;
23617;SDS011;18207;32.078;34.818;2023-05-07T11:20:51;0.88;;;0.82;;
23617;SDS011;18207;32.078;34.818;2023-05-07T11:26:44;1.00;;;0.90;;
23617;SDS011;18207;32.078;34.818;2023-05-07T11:29:17;0.80;;;0.80;;
23617;SDS011;18207;32.078;34.818;2023-05-07T11:31:49;0.80;;;0.80;;
23617;SDS011;18207;32.078;34.818;2023-05-07T11:34:23;1.08;;;0.80;;
23617;SDS011;18207;32.078;34.818;2023-05-07T11:36:54;0.73;;;0.70;;
23617;SDS011;18207;32.078;34.818;2023-05-07T11:39:30;1.10;;;0.98;;
23617;SDS011;18207;32.078;34.818;2023-05-07T11:42:04;0.63;;;0.63;;
23617;SDS011;18207;32.078;34.818;2023-05-07T11:44:43;1.20;;;1.05;;
23617;SDS011;18207;32.078;34.818;2023-05-07T11:47:17;0.77;;;0.75;;
23617;SDS011;18207;32.078;34.818;2023-05-07T11:49:50;0.77;;;0.77;;
23617;SDS011;18207;32.078;34.818;2023-05-07T11:52:23;1.33;;;0.88;;
23617;SDS011;18207;32.078;34.818;2023-05-07T11:54:54;0.95;;;0.95;;
23617;SDS011;18207;32.078;34.818;2023-05-07T11:57:26;1.25;;;0.80;;
23617;SDS011;18207;32.078;34.818;2023-05-07T11:59:58;0.85;;;0.85;;
23617;SDS011;18207;32.078;34.818;2023-05-07T12:02:31;0.60;;;0.60;;
23617;SDS011;18207;32.078;34.818;2023-05-07T12:05:04;0.70;;;0.70;;
23617;SDS011;18207;32.078;34.818;2023-05-07T12:07:36;0.80;;;0.68;;
23617;SDS011;18207;32.078;34.818;2023-05-07T12:10:07;0.60;;;0.52;;
23617;SDS011;18207;32.078;34.818;2023-05-07T12:12:40;0.88;;;0.73;;
23617;SDS011;18207;32.078;34.818;2023-05-07T12:15:15;0.93;;;0.63;;
23617;SDS011;18207;32.078;34.818;2023-05-07T12:17:46;0.80;;;0.75;;
23617;SDS011;18207;32.078;34.818;2023-05-07T12:20:19;1.17;;;1.00;;
23617;SDS011;18207;32.078;34.818;2023-05-07T12:22:50;1.77;;;1.00;;
23617;SDS011;18207;32.078;34.818;2023-05-07T12:25:21;0.90;;;0.90;;
23617;SDS011;18207;32.078;34.818;2023-05-07T12:27:52;0.80;;;0.77;;
23617;SDS011;18207;32.078;34.818;2023-05-07T12:30:22;0.82;;;0.82;;
23617;SDS011;18207;32.078;34.818;2023-05-07T12:32:53;0.95;;;0.90;;
23617;SDS011;18207;32.078;34.818;2023-05-07T12:35:29;0.85;;;0.85;;
23617;SDS011;18207;32.078;34.818;2023-05-07T12:38:07;0.80;;;0.80;;
23617;SDS011;18207;32.078;34.818;2023-05-07T12:40:40;1.45;;;0.90;;
23617;SDS011;18207;32.078;34.818;2023-05-07T12:43:15;0.93;;;0.93;;
23617;SDS011;18207;32.078;34.818;2023-05-07T12:45:46;1.20;;;1.10;;
23617;SDS011;18207;32.078;34.818;2023-05-07T12:48:19;1.05;;;0.95;;
23617;SDS011;18207;32.078;34.818;2023-05-07T12:50:52;0.80;;;0.80;;
23617;SDS011;18207;32.078;34.818;2023-05-07T12:53:23;0.85;;;0.68;;
23617;SDS011;18207;32.078;34.818;2023-05-07T12:55:56;0.82;;;0.77;;
23617;SDS011;18207;32.078;34.818;2023-05-07T12:58:29;0.65;;;0.52;;
23617;SDS011;18207;32.078;34.818;2023-05-07T13:01:04;0.50;;;0.50;;
23617;SDS011;18207;32.078;34.818;2023-05-07T13:03:38;1.00;;;0.70;;
23617;SDS011;18207;32.078;34.818;2023-05-07T13:06:11;0.60;;;0.60;;
23617;SDS011;18207;32.078;34.818;2023-05-07T13:08:41;0.60;;;0.60;;
23617;SDS011;18207;32.078;34.818;2023-05-07T13:11:12;0.50;;;0.50;;
23617;SDS011;18207;32.078;34.818;2023-05-07T13:13:42;0.93;;;0.88;;
23617;SDS011;18207;32.078;34.818;2023-05-07T13:16:13;0.90;;;0.68;;
23617;SDS011;18207;32.078;34.818;2023-05-07T13:18:47;2.45;;;0.77;;
23617;SDS011;18207;32.078;34.818;2023-05-07T13:21:19;0.65;;;0.65;;
23617;SDS011;18207;32.078;34.818;2023-05-07T13:23:49;0.88;;;0.85;;
23617;SDS011;18207;32.078;34.818;2023-05-07T13:26:20;1.00;;;0.75;;
23617;SDS011;18207;32.078;34.818;2023-05-07T13:28:52;1.88;;;0.75;;
23617;SDS011;18207;32.078;34.818;2023-05-07T13:31:23;0.80;;;0.60;;
23617;SDS011;18207;32.078;34.818;2023-05-07T13:33:54;0.50;;;0.50;;
23617;SDS011;18207;32.078;34.818;2023-05-07T13:36:26;0.63;;;0.63;;
23617;SDS011;18207;32.078;34.818;2023-05-07T13:38:59;0.77;;;0.77;;
23617;SDS011;18207;32.078;34.818;2023-05-07T13:41:30;1.10;;;0.60;;
23617;SDS011;18207;32.078;34.818;2023-05-07T13:44:00;0.60;;;0.60;;
23617;SDS011;18207;32.078;34.818;2023-05-07T13:46:31;0.90;;;0.70;;
23617;SDS011;18207;32.078;34.818;2023-05-07T13:49:02;0.65;;;0.65;;
23617;SDS011;18207;32.078;34.818;2023-05-07T13:51:34;0.50;;;0.50;;
23617;SDS011;18207;32.078;34.818;2023-05-07T13:54:04;0.88;;;0.43;;
23617;SDS011;18207;32.078;34.818;2023-05-07T13:56:34;0.77;;;0.60;;
23617;SDS011;18207;32.078;34.818;2023-05-07T13:59:05;0.60;;;0.60;;
23617;SDS011;18207;32.078;34.818;2023-05-07T14:01:36;0.70;;;0.57;;
23617;SDS011;18207;32.078;34.818;2023-05-07T14:04:06;0.55;;;0.55;;
23617;SDS011;18207;32.078;34.818;2023-05-07T14:06:39;0.50;;;0.50;;
23617;SDS011;18207;32.078;34.818;2023-05-07T14:09:10;0.93;;;0.70;;
23617;SDS011;18207;32.078;34.818;2023-05-07T14:11:41;0.70;;;0.70;;
23617;SDS011;18207;32.078;34.818;2023-05-07T14:14:11;1.58;;;0.75;;
23617;SDS011;18207;32.078;34.818;2023-05-07T14:16:42;0.70;;;0.38;;
23617;SDS011;18207;32.078;34.818;2023-05-07T14:19:16;1.15;;;0.70;;
23617;SDS011;18207;32.078;34.818;2023-05-07T14:21:48;0.35;;;0.30;;
23617;SDS011;18207;32.078;34.818;2023-05-07T14:24:18;0.52;;;0.52;;
23617;SDS011;18207;32.078;34.818;2023-05-07T14:27:03;0.80;;;0.40;;
23617;SDS011;18207;32.078;34.818;2023-05-07T14:29:34;0.82;;;0.60;;
23617;SDS011;18207;32.078;34.818;2023-05-07T14:32:04;0.63;;;0.57;;
23617;SDS011;18207;32.078;34.818;2023-05-07T14:34:34;0.60;;;0.60;;
23617;SDS011;18207;32.078;34.818;2023-05-07T14:37:06;0.60;;;0.60;;
23617;SDS011;18207;32.078;34.818;2023-05-07T14:39:37;1.38;;;0.75;;
23617;SDS011;18207;32.078;34.818;2023-05-07T14:42:08;0.70;;;0.70;;
23617;SDS011;18207;32.078;34.818;2023-05-07T14:44:39;0.93;;;0.70;;
23617;SDS011;18207;32.078;34.818;2023-05-07T14:47:12;0.50;;;0.50;;
23617;SDS011;18207;32.078;34.818;2023-05-07T14:49:45;0.95;;;0.73;;
23617;SDS011;18207;32.078;34.818;2023-05-07T14:52:17;1.10;;;0.73;;
23617;SDS011;18207;32.078;34.818;2023-05-07T14:54:48;1.25;;;0.88;;
23617;SDS011;18207;32.078;34.818;2023-05-07T14:57:18;0.82;;;0.75;;
23617;SDS011;18207;32.078;34.818;2023-05-07T14:59:49;0.93;;;0.88;;
23617;SDS011;18207;32.078;34.818;2023-05-07T15:02:19;1.38;;;0.80;;
23617;SDS011;18207;32.078;34.818;2023-05-07T15:04:50;1.00;;;0.70;;
23617;SDS011;18207;32.078;34.818;2023-05-07T15:07:22;0.70;;;0.70;;
23617;SDS011;18207;32.078;34.818;2023-05-07T15:09:53;0.90;;;0.80;;